createdAt,value
2023-05-16T00:01:58.951Z,66.30
2023-05-16T00:04:26.767Z,66.30
2023-05-16T00:06:54.300Z,66.20
2023-05-16T00:09:22.028Z,66.30
2023-05-16T00:11:50.586Z,66.30
2023-05-16T00:14:19.978Z,66.20
2023-05-16T00:16:48.360Z,66.30
2023-05-16T00:19:15.931Z,66.30
2023-05-16T00:21:45.050Z,66.20
2023-05-16T00:24:12.748Z,66.10
2023-05-16T00:26:40.356Z,66.20
2023-05-16T00:29:08.279Z,66.20
2023-05-16T00:31:36.085Z,66.20
2023-05-16T00:34:04.062Z,66.10
2023-05-16T00:36:36.230Z,66.20
2023-05-16T00:39:04.617Z,66.20
2023-05-16T00:41:32.711Z,66.20
2023-05-16T00:44:00.580Z,66.30
2023-05-16T00:46:28.363Z,66.90
2023-05-16T00:48:56.196Z,66.30
2023-05-16T00:51:24.222Z,66.30
2023-05-16T00:53:52.197Z,66.20
2023-05-16T00:56:21.772Z,66.30
2023-05-16T00:58:50.380Z,66.30
2023-05-16T01:01:21.914Z,66.20
2023-05-16T01:03:50.198Z,66.30
2023-05-16T01:06:18.168Z,66.20
2023-05-16T01:08:45.853Z,66.30
2023-05-16T01:11:36.139Z,66.30
2023-05-16T01:14:23.646Z,66.20
2023-05-16T01:17:12.859Z,66.20
2023-05-16T01:20:18.227Z,66.80
2023-05-16T01:22:53.822Z,66.20
2023-05-16T01:25:48.528Z,66.20
2023-05-16T01:28:18.322Z,66.20
2023-05-16T01:30:46.092Z,66.20
2023-05-16T01:33:13.663Z,66.10
2023-05-16T01:35:52.724Z,66.20
2023-05-16T01:38:50.234Z,66.10
2023-05-16T01:42:00.556Z,66.30
2023-05-16T01:45:12.905Z,66.20
2023-05-16T01:47:45.824Z,66.10
2023-05-16T01:50:18.194Z,66.00
2023-05-16T01:52:56.938Z,66.00
2023-05-16T01:55:48.825Z,66.00
2023-05-16T01:58:22.115Z,65.90
2023-05-16T02:00:49.902Z,66.00
2023-05-16T02:03:17.807Z,65.90
2023-05-16T02:05:47.099Z,66.60
2023-05-16T02:08:15.470Z,66.00
2023-05-16T02:10:43.349Z,66.00
2023-05-16T02:13:11.095Z,66.00
2023-05-16T02:15:38.642Z,66.00
2023-05-16T02:18:06.631Z,65.90
2023-05-16T02:20:34.326Z,66.00
2023-05-16T02:23:03.656Z,66.00
2023-05-16T02:25:33.192Z,65.90
2023-05-16T02:28:01.025Z,65.90
2023-05-16T02:30:28.655Z,65.90
2023-05-16T02:32:56.578Z,65.90
2023-05-16T02:35:24.702Z,65.90
2023-05-16T02:37:52.632Z,65.90
2023-05-16T02:40:20.338Z,65.90
2023-05-16T02:42:47.993Z,65.90
2023-05-16T02:45:16.980Z,65.90
2023-05-16T02:47:44.948Z,65.90
2023-05-16T02:50:12.534Z,65.80
2023-05-16T02:52:40.137Z,65.90
2023-05-16T02:57:39.070Z,65.80
2023-05-16T03:00:08.084Z,65.80
2023-05-16T03:02:35.667Z,65.80
2023-05-16T03:05:04.565Z,65.70
2023-05-16T03:07:32.320Z,65.70
2023-05-16T03:09:59.816Z,65.70
2023-05-16T03:12:27.504Z,65.70
2023-05-16T03:14:54.988Z,65.70
2023-05-16T03:17:22.845Z,65.70
2023-05-16T03:19:52.242Z,65.70
2023-05-16T03:22:19.897Z,65.70
2023-05-16T03:24:47.628Z,65.60
2023-05-16T03:27:15.148Z,65.70
2023-05-16T03:29:43.304Z,65.60
2023-05-16T03:32:12.241Z,65.70
2023-05-16T03:34:40.597Z,65.70
2023-05-16T03:37:11.379Z,65.60
2023-05-16T03:39:39.277Z,65.70
2023-05-16T03:42:07.900Z,65.60
2023-05-16T03:44:35.579Z,65.70
2023-05-16T03:47:03.424Z,65.70
2023-05-16T03:49:31.235Z,65.70
2023-05-16T03:51:59.052Z,65.70
2023-05-16T03:54:27.333Z,65.70
2023-05-16T03:56:54.912Z,65.70
2023-05-16T03:59:22.694Z,65.70
2023-05-16T04:03:10.130Z,65.70
2023-05-16T04:05:38.251Z,65.70
2023-05-16T04:08:05.993Z,65.70
2023-05-16T04:10:33.928Z,65.70
2023-05-16T04:13:01.525Z,65.60
2023-05-16T04:15:29.404Z,65.60
2023-05-16T04:17:57.193Z,65.60
2023-05-16T04:20:24.728Z,65.40
2023-05-16T04:22:52.368Z,65.30
2023-05-16T04:25:20.162Z,65.30
2023-05-16T04:27:47.917Z,65.30
2023-05-16T04:30:16.397Z,65.30
2023-05-16T04:32:44.237Z,65.30
2023-05-16T04:35:12.397Z,65.40
2023-05-16T04:37:40.184Z,65.30
2023-05-16T04:40:10.073Z,65.30
2023-05-16T04:42:37.913Z,65.40
2023-05-16T04:45:07.180Z,65.40
2023-05-16T04:47:34.904Z,65.40
2023-05-16T04:50:03.137Z,65.40
2023-05-16T04:52:31.013Z,65.30
2023-05-16T04:55:00.693Z,65.30
2023-05-16T04:57:28.467Z,65.40
2023-05-16T04:59:56.351Z,65.30
2023-05-16T05:02:24.093Z,65.40
2023-05-16T05:04:51.977Z,65.30
2023-05-16T05:07:19.636Z,65.30
2023-05-16T05:09:47.662Z,65.20
2023-05-16T05:12:18.484Z,65.10
2023-05-16T05:14:46.203Z,65.20
2023-05-16T05:17:13.783Z,65.20
2023-05-16T05:19:41.413Z,65.10
2023-05-16T05:22:09.040Z,65.20
2023-05-16T05:24:36.854Z,65.10
2023-05-16T05:27:04.828Z,65.10
2023-05-16T05:29:32.568Z,65.00
2023-05-16T05:32:00.428Z,65.00
2023-05-16T05:34:28.002Z,65.10
2023-05-16T05:36:55.646Z,64.90
2023-05-16T05:39:24.989Z,65.00
2023-05-16T05:41:53.111Z,65.00
2023-05-16T05:44:21.161Z,64.90
2023-05-16T05:46:48.858Z,65.00
2023-05-16T05:49:17.150Z,65.10
2023-05-16T05:51:44.938Z,65.00
2023-05-16T05:54:13.885Z,65.00
2023-05-16T05:56:41.509Z,65.00
2023-05-16T05:59:09.193Z,65.00
2023-05-16T06:01:36.971Z,65.00
2023-05-16T06:04:04.816Z,65.00
2023-05-16T06:06:32.941Z,65.10
2023-05-16T06:09:00.879Z,65.10
2023-05-16T06:11:28.941Z,65.20
2023-05-16T06:13:56.503Z,65.10
2023-05-16T06:16:27.510Z,65.10
2023-05-16T06:18:55.547Z,65.00
2023-05-16T06:21:23.060Z,65.10
2023-05-16T06:23:50.660Z,65.00
2023-05-16T06:26:18.423Z,65.00
2023-05-16T06:28:46.063Z,65.10
2023-05-16T06:31:13.882Z,65.00
2023-05-16T06:33:41.629Z,64.90
2023-05-16T06:36:09.309Z,65.20
2023-05-16T06:38:37.000Z,65.40
2023-05-16T06:41:04.619Z,65.60
2023-05-16T06:43:32.124Z,65.70
2023-05-16T06:45:59.612Z,65.80
2023-05-16T06:48:27.130Z,66.00
2023-05-16T06:50:54.680Z,66.00
2023-05-16T06:53:22.408Z,65.90
2023-05-16T06:55:50.207Z,65.90
2023-05-16T06:58:18.113Z,65.80
2023-05-16T07:00:45.720Z,65.70
2023-05-16T07:03:14.188Z,65.60
2023-05-16T07:05:42.200Z,65.50
2023-05-16T07:08:11.200Z,65.40
2023-05-16T07:10:40.201Z,65.30
2023-05-16T07:13:08.059Z,65.30
2023-05-16T07:15:35.840Z,65.30
2023-05-16T07:18:03.425Z,65.20
2023-05-16T07:20:31.074Z,65.20
2023-05-16T07:22:59.583Z,65.20
2023-05-16T07:25:27.382Z,65.10
2023-05-16T07:27:55.220Z,65.10
2023-05-16T07:30:22.805Z,64.90
2023-05-16T07:32:50.670Z,64.70
2023-05-16T07:35:18.606Z,64.70
2023-05-16T07:37:46.676Z,64.60
2023-05-16T07:40:15.224Z,64.40
2023-05-16T07:42:42.871Z,64.20
2023-05-16T07:45:11.241Z,64.10
2023-05-16T07:47:39.061Z,63.70
2023-05-16T07:50:07.850Z,64.20
2023-05-16T07:52:35.664Z,64.20
2023-05-16T07:55:04.679Z,64.00
2023-05-16T07:57:32.798Z,64.00
2023-05-16T08:00:00.740Z,63.90
2023-05-16T08:02:31.214Z,63.70
2023-05-16T08:04:59.153Z,63.60
2023-05-16T08:07:26.880Z,63.50
2023-05-16T08:09:54.790Z,63.40
2023-05-16T08:12:23.173Z,63.10
2023-05-16T08:14:51.106Z,62.90
2023-05-16T08:17:18.802Z,62.80
2023-05-16T08:19:46.608Z,62.70
2023-05-16T08:22:14.339Z,62.60
2023-05-16T08:24:42.265Z,62.40
2023-05-16T08:27:11.527Z,62.40
2023-05-16T08:29:39.377Z,62.40
2023-05-16T08:32:09.298Z,62.30
2023-05-16T08:34:37.387Z,62.30
2023-05-16T08:37:05.256Z,62.20
2023-05-16T08:39:36.167Z,62.20
2023-05-16T08:42:05.450Z,62.10
2023-05-16T08:44:34.785Z,62.10
2023-05-16T08:47:14.261Z,61.90
2023-05-16T08:49:42.741Z,61.80
2023-05-16T08:52:11.592Z,61.70
2023-05-16T08:54:41.761Z,61.70
2023-05-16T08:57:10.443Z,61.70
2023-05-16T08:59:38.409Z,61.90
2023-05-16T09:02:06.624Z,61.90
2023-05-16T09:04:34.982Z,61.90
2023-05-16T09:07:02.697Z,62.00
2023-05-16T09:09:30.716Z,62.10
2023-05-16T09:11:58.458Z,62.10
2023-05-16T09:14:26.132Z,62.70
2023-05-16T09:17:12.296Z,62.10
2023-05-16T09:19:41.554Z,62.10
2023-05-16T09:22:16.141Z,62.20
2023-05-16T09:24:45.681Z,62.20
2023-05-16T09:27:15.858Z,62.20
2023-05-16T09:29:54.920Z,62.30
2023-05-16T09:32:22.711Z,62.20
2023-05-16T09:34:53.086Z,62.20
2023-05-16T09:37:21.655Z,62.20
2023-05-16T09:39:57.684Z,62.10
2023-05-16T09:42:26.205Z,62.00
2023-05-16T09:44:57.014Z,61.80
2023-05-16T09:47:28.455Z,61.70
2023-05-16T09:50:00.308Z,61.50
2023-05-16T09:52:28.597Z,61.30
2023-05-16T09:54:58.490Z,61.00
2023-05-16T09:57:27.476Z,60.90
2023-05-16T09:59:55.075Z,61.10
2023-05-16T10:02:23.458Z,61.40
2023-05-16T10:04:51.515Z,61.60
2023-05-16T10:07:20.965Z,61.60
2023-05-16T10:09:50.030Z,61.60
2023-05-16T10:12:17.797Z,61.60
2023-05-16T10:14:47.565Z,61.50
2023-05-16T10:17:16.812Z,61.40
2023-05-16T10:19:44.666Z,61.50
2023-05-16T10:22:14.415Z,61.60
2023-05-16T10:25:27.603Z,61.60
2023-05-16T10:27:55.754Z,61.60
2023-05-16T10:30:23.710Z,61.70
2023-05-16T10:32:53.825Z,61.70
2023-05-16T10:35:22.372Z,61.70
2023-05-16T10:37:51.978Z,61.70
2023-05-16T10:40:20.244Z,61.70
2023-05-16T10:43:04.233Z,61.70
2023-05-16T10:45:32.752Z,61.80
2023-05-16T10:48:06.485Z,61.80
2023-05-16T10:50:45.816Z,61.80
2023-05-16T10:53:29.836Z,61.90
2023-05-16T10:56:00.057Z,62.00
2023-05-16T10:58:43.653Z,62.30
2023-05-16T11:01:36.345Z,62.60
2023-05-16T11:04:10.888Z,62.90
2023-05-16T11:06:41.715Z,63.20
2023-05-16T11:09:13.774Z,63.50
2023-05-16T11:11:55.992Z,63.60
2023-05-16T11:14:33.656Z,63.80
2023-05-16T11:17:22.873Z,63.80
2023-05-16T11:19:59.886Z,63.90
2023-05-16T11:22:30.081Z,63.90
2023-05-16T11:25:38.839Z,63.90
2023-05-16T11:28:06.628Z,63.90
2023-05-16T11:30:34.323Z,63.90
2023-05-16T11:33:02.149Z,63.90
2023-05-16T11:35:31.014Z,63.80
2023-05-16T11:37:58.881Z,63.60
2023-05-16T11:40:28.025Z,63.60
2023-05-16T11:43:00.694Z,63.50
2023-05-16T11:45:28.513Z,63.50
2023-05-16T11:48:06.656Z,63.50
2023-05-16T11:50:36.565Z,63.40
2023-05-16T11:53:04.386Z,63.30
2023-05-16T11:55:41.805Z,63.10
2023-05-16T11:58:12.567Z,63.10
2023-05-16T12:00:50.214Z,63.00
2023-05-16T12:03:20.678Z,63.00
2023-05-16T12:05:57.303Z,63.00
2023-05-16T12:08:25.532Z,62.90
2023-05-16T12:10:54.037Z,62.90
2023-05-16T12:13:25.325Z,62.80
2023-05-16T12:15:53.400Z,62.70
2023-05-16T12:18:24.468Z,62.60
2023-05-16T12:20:52.605Z,62.60
2023-05-16T12:23:20.357Z,62.50
2023-05-16T12:25:49.773Z,62.50
2023-05-16T12:28:17.719Z,62.50
2023-05-16T12:30:48.277Z,62.40
2023-05-16T12:33:17.702Z,62.30
2023-05-16T12:35:48.157Z,62.20
2023-05-16T12:38:17.970Z,62.10
2023-05-16T12:40:46.964Z,62.20
2023-05-16T12:43:23.174Z,62.10
2023-05-16T12:45:58.596Z,62.00
2023-05-16T12:48:36.037Z,62.10
2023-05-16T12:51:18.323Z,61.90
2023-05-16T12:54:05.671Z,61.90
2023-05-16T12:56:42.741Z,61.90
2023-05-16T12:59:12.552Z,61.80
2023-05-16T13:01:40.915Z,61.90
2023-05-16T13:04:09.421Z,61.80
2023-05-16T13:06:56.470Z,61.80
2023-05-16T13:09:29.094Z,61.70
2023-05-16T13:12:00.024Z,61.80
2023-05-16T13:14:28.093Z,61.70
2023-05-16T13:16:55.754Z,61.70
2023-05-16T13:19:24.605Z,61.80
2023-05-16T13:21:52.187Z,61.60
2023-05-16T13:24:20.103Z,61.70
2023-05-16T13:26:47.872Z,61.60
2023-05-16T13:29:15.449Z,61.60
2023-05-16T13:31:43.325Z,61.70
2023-05-16T13:34:11.203Z,61.60
2023-05-16T13:36:52.946Z,61.70
2023-05-16T13:39:22.323Z,62.30
2023-05-16T13:41:51.332Z,61.70
2023-05-16T13:44:20.051Z,61.60
2023-05-16T13:46:48.200Z,61.60
2023-05-16T13:49:15.821Z,61.70
2023-05-16T13:51:43.512Z,61.70
2023-05-16T13:54:11.594Z,61.60
2023-05-16T13:56:39.201Z,61.50
2023-05-16T13:59:07.561Z,61.50
2023-05-16T14:01:36.926Z,61.50
2023-05-16T14:04:05.221Z,61.50
2023-05-16T14:06:33.711Z,61.50
2023-05-16T14:09:01.171Z,61.50
2023-05-16T14:11:29.391Z,61.50
2023-05-16T14:13:58.623Z,61.50
2023-05-16T14:16:26.731Z,61.40
2023-05-16T14:18:54.854Z,61.40
2023-05-16T14:21:22.775Z,61.40
2023-05-16T14:23:50.343Z,61.30
2023-05-16T14:26:22.799Z,61.30
2023-05-16T14:28:51.236Z,61.30
2023-05-16T14:31:19.554Z,61.20
2023-05-16T14:33:47.149Z,61.20
2023-05-16T14:36:18.263Z,61.20
2023-05-16T14:38:45.947Z,61.30
2023-05-16T14:41:13.655Z,61.10
2023-05-16T14:43:42.603Z,61.10
2023-05-16T14:46:10.274Z,61.20
2023-05-16T14:48:38.222Z,61.10
2023-05-16T14:51:06.639Z,61.60
2023-05-16T14:53:34.304Z,61.00
2023-05-16T14:56:03.459Z,61.00
2023-05-16T14:58:31.867Z,60.90
2023-05-16T15:00:59.539Z,61.00
2023-05-16T15:03:27.404Z,61.50
2023-05-16T15:05:55.344Z,60.90
2023-05-16T15:08:24.262Z,60.90
2023-05-16T15:10:52.057Z,60.90
2023-05-16T15:13:19.686Z,61.50
2023-05-16T15:15:47.432Z,60.70
2023-05-16T15:18:15.037Z,60.70
2023-05-16T15:20:42.751Z,60.70
2023-05-16T15:23:11.129Z,60.60
2023-05-16T15:25:38.869Z,60.60
2023-05-16T15:28:06.668Z,60.50
2023-05-16T15:30:34.186Z,60.50
2023-05-16T15:33:01.758Z,60.40
2023-05-16T15:35:29.776Z,60.40
2023-05-16T15:37:59.820Z,60.50
2023-05-16T15:40:27.910Z,60.40
2023-05-16T15:42:55.896Z,60.50
2023-05-16T15:45:23.560Z,60.40
2023-05-16T15:47:51.353Z,60.50
2023-05-16T15:50:18.946Z,60.50
2023-05-16T15:52:46.698Z,60.40
2023-05-16T15:55:14.665Z,60.40
2023-05-16T15:57:44.076Z,60.40
2023-05-16T16:00:13.053Z,60.40
2023-05-16T16:02:43.642Z,60.30
2023-05-16T16:05:11.572Z,60.30
2023-05-16T16:07:39.059Z,60.30
2023-05-16T16:10:07.804Z,60.30
2023-05-16T16:12:37.205Z,60.10
2023-05-16T16:15:07.170Z,60.10
2023-05-16T16:17:34.795Z,60.10
2023-05-16T16:20:02.514Z,60.20
2023-05-16T16:22:30.306Z,60.20
2023-05-16T16:24:57.990Z,60.20
2023-05-16T16:27:26.144Z,60.20
2023-05-16T16:29:54.120Z,60.30
2023-05-16T16:32:21.702Z,60.30
2023-05-16T16:34:49.637Z,60.30
2023-05-16T16:37:17.279Z,60.40
2023-05-16T16:39:47.944Z,60.30
2023-05-16T16:42:15.982Z,60.30
2023-05-16T16:44:43.391Z,60.30
2023-05-16T16:47:11.769Z,60.40
2023-05-16T16:49:39.550Z,60.40
2023-05-16T16:52:07.850Z,60.40
2023-05-16T16:54:35.998Z,60.40
2023-05-16T16:57:04.107Z,60.40
2023-05-16T16:59:34.057Z,60.40
2023-05-16T17:02:04.908Z,60.40
2023-05-16T17:04:35.228Z,60.40
2023-05-16T17:07:02.797Z,60.30
2023-05-16T17:09:30.227Z,60.30
2023-05-16T17:11:58.156Z,60.30
2023-05-16T17:14:25.826Z,60.40
2023-05-16T17:16:53.726Z,60.40
2023-05-16T17:19:21.162Z,60.40
2023-05-16T17:21:50.600Z,60.40
2023-05-16T17:24:18.421Z,60.40
2023-05-16T17:26:47.003Z,60.20
2023-05-16T17:29:14.646Z,60.20
2023-05-16T17:31:42.266Z,60.10
2023-05-16T17:34:09.838Z,60.30
2023-05-16T17:36:38.224Z,60.20
2023-05-16T17:39:09.935Z,60.20
2023-05-16T17:41:38.883Z,60.70
2023-05-16T17:44:08.868Z,60.30
2023-05-16T17:46:38.683Z,60.10
2023-05-16T17:49:10.452Z,60.10
2023-05-16T17:51:52.405Z,60.20
2023-05-16T17:54:24.551Z,60.20
2023-05-16T17:56:53.908Z,60.20
2023-05-16T17:59:21.634Z,60.30
2023-05-16T18:01:49.374Z,60.20
2023-05-16T18:04:18.519Z,60.20
2023-05-16T18:06:46.872Z,60.30
2023-05-16T18:09:15.321Z,60.30
2023-05-16T18:11:43.177Z,60.30
2023-05-16T18:14:13.059Z,60.30
2023-05-16T18:16:40.842Z,60.30
2023-05-16T18:19:09.559Z,60.30
2023-05-16T18:21:38.442Z,60.40
2023-05-16T18:24:08.788Z,60.40
2023-05-16T18:26:36.896Z,60.40
2023-05-16T18:29:04.554Z,60.30
2023-05-16T18:31:33.904Z,60.40
2023-05-16T18:34:02.049Z,60.30
2023-05-16T18:36:30.154Z,60.20
2023-05-16T18:38:58.376Z,60.20
2023-05-16T18:41:27.246Z,60.20
2023-05-16T18:43:54.761Z,60.10
2023-05-16T18:46:22.379Z,60.10
2023-05-16T18:48:50.325Z,60.10
2023-05-16T18:51:18.078Z,60.10
2023-05-16T18:53:45.664Z,60.10
2023-05-16T18:56:15.299Z,60.20
2023-05-16T18:58:42.891Z,60.40
2023-05-16T19:01:10.684Z,60.40
2023-05-16T19:03:38.577Z,60.50
2023-05-16T19:06:06.501Z,60.60
2023-05-16T19:08:47.059Z,60.60
2023-05-16T19:11:18.009Z,60.70
2023-05-16T19:13:47.332Z,60.80
2023-05-16T19:16:15.477Z,60.90
2023-05-16T19:18:43.193Z,61.10
2023-05-16T19:21:13.582Z,61.10
2023-05-16T19:23:41.318Z,61.50
2023-05-16T19:26:09.418Z,62.30
2023-05-16T19:28:39.646Z,62.60
2023-05-16T19:31:08.120Z,62.90
2023-05-16T19:33:35.839Z,63.20
2023-05-16T19:36:06.216Z,63.40
2023-05-16T19:38:34.353Z,63.60
2023-05-16T19:41:02.378Z,63.70
2023-05-16T19:43:30.763Z,63.80
2023-05-16T19:45:58.752Z,63.90
2023-05-16T19:48:26.848Z,63.90
2023-05-16T19:50:54.884Z,64.00
2023-05-16T19:53:23.199Z,64.00
2023-05-16T19:55:50.914Z,64.00
2023-05-16T19:58:18.666Z,64.00
2023-05-16T20:00:47.376Z,63.90
2023-05-16T20:03:15.199Z,63.80
2023-05-16T20:05:43.059Z,63.80
2023-05-16T20:08:14.505Z,63.80
2023-05-16T20:10:42.464Z,63.70
2023-05-16T20:13:10.214Z,63.70
2023-05-16T20:15:37.921Z,63.60
2023-05-16T20:18:05.932Z,64.10
2023-05-16T20:20:33.525Z,63.50
2023-05-16T20:23:01.313Z,63.40
2023-05-16T20:25:29.422Z,63.30
2023-05-16T20:27:57.201Z,63.20
2023-05-16T20:30:24.827Z,63.10
2023-05-16T20:32:52.817Z,63.10
2023-05-16T20:35:20.892Z,63.00
2023-05-16T20:37:48.669Z,63.00
2023-05-16T20:40:16.439Z,62.90
2023-05-16T20:42:44.262Z,62.90
2023-05-16T20:45:12.083Z,62.80
2023-05-16T20:47:40.172Z,62.80
2023-05-16T20:50:08.609Z,62.90
2023-05-16T20:52:36.223Z,62.70
2023-05-16T20:55:04.236Z,62.70
2023-05-16T20:57:31.918Z,64.00
2023-05-16T20:59:59.476Z,64.70
2023-05-16T21:02:27.127Z,64.90
2023-05-16T21:04:55.263Z,65.00
2023-05-16T21:07:23.825Z,65.10
2023-05-16T21:09:51.686Z,65.20
2023-05-16T21:12:19.339Z,65.20
2023-05-16T21:14:47.078Z,65.20
2023-05-16T21:17:15.047Z,65.10
2023-05-16T21:19:43.015Z,65.00
2023-05-16T21:22:13.111Z,65.00
2023-05-16T21:24:42.074Z,64.90
2023-05-16T21:27:09.796Z,64.90
2023-05-16T21:29:37.704Z,64.80
2023-05-16T21:32:09.446Z,64.80
2023-05-16T21:34:37.311Z,64.70
2023-05-16T21:37:07.496Z,64.60
2023-05-16T21:39:35.660Z,64.60
2023-05-16T21:42:03.654Z,64.60
2023-05-16T21:44:31.860Z,64.40
2023-05-16T21:46:59.358Z,64.40
2023-05-16T21:49:27.008Z,64.50
2023-05-16T21:51:54.846Z,64.40
2023-05-16T21:54:22.552Z,64.40
2023-05-16T21:56:50.000Z,64.40
2023-05-16T21:59:17.683Z,64.30
2023-05-16T22:01:45.347Z,64.20
2023-05-16T22:04:13.156Z,64.10
2023-05-16T22:06:43.658Z,64.10
2023-05-16T22:09:11.997Z,63.90
2023-05-16T22:11:39.422Z,63.90
2023-05-16T22:14:07.250Z,63.90
2023-05-16T22:16:35.066Z,63.80
2023-05-16T22:19:03.603Z,63.70
2023-05-16T22:21:31.463Z,63.70
2023-05-16T22:23:58.928Z,63.60
2023-05-16T22:26:26.605Z,63.60
2023-05-16T22:28:57.328Z,63.60
2023-05-16T22:31:27.347Z,63.50
2023-05-16T22:33:55.270Z,63.50
2023-05-16T22:36:23.123Z,63.40
2023-05-16T22:38:50.754Z,63.40
2023-05-16T22:41:18.414Z,63.40
2023-05-16T22:43:46.283Z,63.40
2023-05-16T22:46:15.513Z,63.40
2023-05-16T22:48:43.475Z,63.40
2023-05-16T22:51:11.300Z,63.40
2023-05-16T22:53:42.026Z,63.40
2023-05-16T22:56:09.777Z,63.50
2023-05-16T22:58:37.683Z,63.40
2023-05-16T23:01:05.370Z,63.50
2023-05-16T23:03:34.413Z,63.40
2023-05-16T23:06:05.603Z,63.40
2023-05-16T23:08:33.784Z,63.40
2023-05-16T23:11:01.623Z,63.30
2023-05-16T23:13:29.143Z,63.30
2023-05-16T23:15:56.623Z,63.30
2023-05-16T23:18:24.456Z,63.40
2023-05-16T23:20:52.301Z,63.30
2023-05-16T23:23:19.752Z,63.10
2023-05-16T23:25:50.377Z,63.10
2023-05-16T23:28:19.129Z,63.80
2023-05-16T23:30:49.008Z,63.00
2023-05-16T23:33:16.902Z,63.00
2023-05-16T23:35:44.696Z,63.00
2023-05-16T23:38:12.405Z,62.80
2023-05-16T23:40:42.947Z,62.80
2023-05-16T23:43:10.613Z,62.90
2023-05-16T23:45:38.342Z,63.10
2023-05-16T23:48:06.526Z,63.10
2023-05-16T23:50:34.395Z,63.10
2023-05-16T23:53:01.978Z,63.00
2023-05-16T23:55:29.985Z,63.00
2023-05-16T23:57:57.776Z,63.00
